createdAt,value
2018-08-22T00:02:24.479Z,93.40
2018-08-22T00:04:51.998Z,93.50
2018-08-22T00:07:19.708Z,93.70
2018-08-22T00:09:47.231Z,94.00
2018-08-22T00:12:14.780Z,94.00
2018-08-22T00:14:42.290Z,94.10
2018-08-22T00:17:09.799Z,94.10
2018-08-22T00:19:37.326Z,94.10
2018-08-22T00:22:04.847Z,94.10
2018-08-22T00:24:32.374Z,94.10
2018-08-22T00:26:59.879Z,94.00
2018-08-22T00:29:27.425Z,94.00
2018-08-22T00:31:54.939Z,94.10
2018-08-22T00:34:22.447Z,94.20
2018-08-22T00:36:49.986Z,94.30
2018-08-22T00:39:17.502Z,94.40
2018-08-22T00:41:45.021Z,94.40
2018-08-22T00:44:12.539Z,94.50
2018-08-22T00:46:40.047Z,94.60
2018-08-22T00:49:07.574Z,94.80
2018-08-22T00:51:35.079Z,95.20
2018-08-22T00:54:02.579Z,95.00
2018-08-22T00:56:30.107Z,95.50
2018-08-22T00:58:57.619Z,95.40
2018-08-22T01:01:25.155Z,95.70
2018-08-22T01:03:52.663Z,96.00
2018-08-22T01:06:20.175Z,95.90
2018-08-22T01:08:47.687Z,96.00
2018-08-22T01:11:15.210Z,96.20
2018-08-22T01:13:42.731Z,96.20
2018-08-22T01:16:10.244Z,96.20
2018-08-22T01:18:37.766Z,96.10
2018-08-22T01:21:05.496Z,96.10
2018-08-22T01:23:33.022Z,96.00
2018-08-22T01:26:00.574Z,95.90
2018-08-22T01:28:28.091Z,95.90
2018-08-22T01:30:55.614Z,95.90
2018-08-22T01:33:23.127Z,95.90
2018-08-22T01:35:50.639Z,96.00
2018-08-22T01:38:18.147Z,96.10
2018-08-22T01:40:45.671Z,96.10
2018-08-22T01:43:13.194Z,96.20
2018-08-22T01:45:40.703Z,96.50
2018-08-22T01:48:08.221Z,96.80
2018-08-22T01:50:35.734Z,96.60
2018-08-22T01:53:03.279Z,96.60
2018-08-22T01:55:30.870Z,96.70
2018-08-22T01:57:58.391Z,96.80
2018-08-22T02:00:25.896Z,96.80
2018-08-22T02:02:53.435Z,96.90
2018-08-22T02:05:20.972Z,97.10
2018-08-22T02:07:48.502Z,97.30
2018-08-22T02:10:16.036Z,97.50
2018-08-22T02:12:43.562Z,97.50
2018-08-22T02:15:11.104Z,97.50
2018-08-22T02:17:38.630Z,97.60
2018-08-22T02:20:06.184Z,97.50
2018-08-22T02:22:33.730Z,97.60
2018-08-22T02:25:01.438Z,97.70
2018-08-22T02:27:28.930Z,97.80
2018-08-22T02:29:56.469Z,97.70
2018-08-22T02:32:24.008Z,97.70
2018-08-22T02:34:51.557Z,97.70
2018-08-22T02:37:19.702Z,97.70
2018-08-22T02:39:47.229Z,97.80
2018-08-22T02:42:14.767Z,98.00
2018-08-22T02:44:42.304Z,98.20
2018-08-22T02:47:09.855Z,98.60
2018-08-22T02:49:37.391Z,98.50
2018-08-22T02:52:04.938Z,98.60
2018-08-22T02:54:32.481Z,98.70
2018-08-22T02:57:00.047Z,98.80
2018-08-22T02:59:27.582Z,98.80
2018-08-22T03:01:55.135Z,98.80
2018-08-22T03:04:22.720Z,98.80
2018-08-22T03:06:50.242Z,99.10
2018-08-22T03:09:17.776Z,99.30
2018-08-22T03:11:45.298Z,99.20
2018-08-22T03:14:12.826Z,99.30
2018-08-22T03:16:40.375Z,99.40
2018-08-22T03:19:07.907Z,99.50
2018-08-22T03:21:35.440Z,99.50
2018-08-22T03:24:02.975Z,99.50
2018-08-22T03:26:30.528Z,99.50
2018-08-22T03:28:58.067Z,99.70
2018-08-22T03:31:25.587Z,99.80
2018-08-22T03:33:53.137Z,99.90
2018-08-22T03:36:20.692Z,99.90
2018-08-22T03:38:48.263Z,99.90
2018-08-22T03:41:15.802Z,99.90
2018-08-22T03:43:43.521Z,99.90
2018-08-22T03:46:11.047Z,99.90
2018-08-22T03:48:38.584Z,99.90
2018-08-22T03:51:06.137Z,99.90
2018-08-22T03:53:33.672Z,99.90
2018-08-22T03:56:01.199Z,99.90
2018-08-22T03:58:28.734Z,99.90
2018-08-22T04:00:56.263Z,99.90
2018-08-22T04:03:23.775Z,99.90
2018-08-22T04:05:51.299Z,99.90
2018-08-22T04:08:18.818Z,99.90
2018-08-22T04:10:46.332Z,99.90
2018-08-22T04:13:13.850Z,99.90
2018-08-22T04:15:41.370Z,99.90
2018-08-22T04:18:08.880Z,99.90
2018-08-22T04:20:36.390Z,99.90
2018-08-22T04:23:04.202Z,99.90
2018-08-22T04:25:31.721Z,99.90
2018-08-22T04:27:59.238Z,99.90
2018-08-22T04:30:26.758Z,99.90
2018-08-22T04:32:54.279Z,99.90
2018-08-22T04:35:21.844Z,99.90
2018-08-22T04:37:49.634Z,99.90
2018-08-22T04:40:17.199Z,99.90
2018-08-22T04:42:44.755Z,99.90
2018-08-22T04:45:12.271Z,99.90
2018-08-22T04:47:39.799Z,99.90
2018-08-22T04:50:07.435Z,99.90
2018-08-22T04:52:34.970Z,99.90
2018-08-22T04:55:02.491Z,99.90
2018-08-22T04:57:30.016Z,99.90
2018-08-22T04:59:57.522Z,99.90
2018-08-22T05:02:25.064Z,99.90
2018-08-22T05:04:52.588Z,99.90
2018-08-22T05:07:20.099Z,99.90
2018-08-22T05:09:47.611Z,99.90
2018-08-22T05:12:15.135Z,99.90
2018-08-22T05:14:42.686Z,99.90
2018-08-22T05:17:10.220Z,99.90
2018-08-22T05:19:37.736Z,99.90
2018-08-22T05:22:05.246Z,99.90
2018-08-22T05:24:32.772Z,99.90
2018-08-22T05:27:00.304Z,99.90
2018-08-22T05:29:27.890Z,99.90
2018-08-22T05:31:57.508Z,99.90
2018-08-22T05:34:25.562Z,99.90
2018-08-22T05:36:53.112Z,99.90
2018-08-22T05:39:20.622Z,99.10
2018-08-22T05:41:48.147Z,98.30
2018-08-22T05:44:15.671Z,97.90
2018-08-22T05:46:43.194Z,97.80
2018-08-22T05:49:10.754Z,97.50
2018-08-22T05:51:38.269Z,97.20
2018-08-22T05:54:05.829Z,96.90
2018-08-22T05:56:33.360Z,96.10
2018-08-22T05:59:00.870Z,95.10
2018-08-22T06:01:28.413Z,94.40
2018-08-22T06:03:55.930Z,93.70
2018-08-22T06:06:23.468Z,93.80
2018-08-22T06:08:50.986Z,93.30
2018-08-22T06:11:18.505Z,92.00
2018-08-22T06:13:46.027Z,91.10
2018-08-22T06:16:13.554Z,90.50
2018-08-22T06:18:41.094Z,91.00
2018-08-22T06:21:08.602Z,91.40
2018-08-22T06:23:36.126Z,91.60
2018-08-22T06:26:03.655Z,91.80
2018-08-22T06:28:31.178Z,91.90
2018-08-22T06:30:58.683Z,92.00
2018-08-22T06:33:26.218Z,92.00
2018-08-22T06:35:53.745Z,92.10
2018-08-22T06:38:21.272Z,92.20
2018-08-22T06:40:48.786Z,92.30
2018-08-22T06:43:16.311Z,92.20
2018-08-22T06:45:43.835Z,92.10
2018-08-22T06:48:11.354Z,91.70
2018-08-22T06:50:39.012Z,91.10
2018-08-22T06:53:06.662Z,90.80
2018-08-22T06:55:34.167Z,90.80
2018-08-22T06:58:01.679Z,90.60
2018-08-22T07:00:29.195Z,90.60
2018-08-22T07:02:56.732Z,90.40
2018-08-22T07:05:24.252Z,90.40
2018-08-22T07:07:51.789Z,90.30
2018-08-22T07:10:19.324Z,90.20
2018-08-22T07:12:46.839Z,90.00
2018-08-22T07:15:14.347Z,89.70
2018-08-22T07:17:41.876Z,89.70
2018-08-22T07:20:09.409Z,88.70
2018-08-22T07:22:36.922Z,87.80
2018-08-22T07:25:04.512Z,86.00
2018-08-22T07:27:32.060Z,83.30
2018-08-22T07:29:59.615Z,81.30
2018-08-22T07:32:27.156Z,80.90
2018-08-22T07:34:54.667Z,79.20
2018-08-22T07:37:22.194Z,77.40
2018-08-22T07:39:49.702Z,75.80
2018-08-22T07:42:17.207Z,73.80
2018-08-22T07:44:44.734Z,72.40
2018-08-22T07:47:12.283Z,71.00
2018-08-22T07:49:39.788Z,69.10
2018-08-22T07:52:07.609Z,67.40
2018-08-22T07:54:39.767Z,66.20
2018-08-22T07:57:07.648Z,65.20
2018-08-22T07:59:35.191Z,63.50
2018-08-22T08:02:02.829Z,62.30
2018-08-22T08:04:30.273Z,60.90
2018-08-22T08:06:57.836Z,60.00
2018-08-22T08:09:25.380Z,58.80
2018-08-22T08:11:52.879Z,58.00
2018-08-22T08:14:20.392Z,57.50
2018-08-22T08:16:47.919Z,56.70
2018-08-22T08:19:15.446Z,55.60
2018-08-22T08:21:42.961Z,55.50
2018-08-22T08:24:10.507Z,54.40
2018-08-22T08:26:38.026Z,53.00
2018-08-22T08:29:05.691Z,52.10
2018-08-22T08:31:33.210Z,51.70
2018-08-22T08:34:00.740Z,51.20
2018-08-22T08:36:28.397Z,50.50
2018-08-22T08:38:55.919Z,49.50
2018-08-22T08:41:23.422Z,48.60
2018-08-22T08:43:50.959Z,48.10
2018-08-22T08:46:18.487Z,47.60
2018-08-22T08:48:46.002Z,46.90
2018-08-22T08:51:13.541Z,46.20
2018-08-22T08:53:41.068Z,45.40
2018-08-22T08:56:08.575Z,44.70
2018-08-22T08:58:36.129Z,44.50
2018-08-22T09:01:03.644Z,44.20
2018-08-22T09:03:31.204Z,43.30
2018-08-22T09:05:58.732Z,42.80
2018-08-22T09:08:26.255Z,42.70
2018-08-22T09:10:53.784Z,42.30
2018-08-22T09:13:21.314Z,41.90
2018-08-22T09:15:48.821Z,41.50
2018-08-22T09:18:16.364Z,41.10
2018-08-22T09:20:43.915Z,41.30
2018-08-22T09:23:11.444Z,39.60
2018-08-22T09:25:38.959Z,40.30
2018-08-22T09:28:06.512Z,40.20
2018-08-22T09:30:34.016Z,39.80
2018-08-22T09:33:01.527Z,39.60
2018-08-22T09:35:29.431Z,39.10
2018-08-22T09:37:56.947Z,38.90
2018-08-22T09:40:24.475Z,39.60
2018-08-22T09:42:51.990Z,38.70
2018-08-22T09:45:19.511Z,38.70
2018-08-22T09:47:47.034Z,38.30
2018-08-22T09:50:14.575Z,37.80
2018-08-22T09:52:42.078Z,37.60
2018-08-22T09:55:09.594Z,37.50
2018-08-22T09:57:37.112Z,37.20
2018-08-22T10:00:05.832Z,36.90
2018-08-22T10:02:33.328Z,37.00
2018-08-22T10:05:00.879Z,36.90
2018-08-22T10:07:28.450Z,36.80
2018-08-22T10:09:55.970Z,36.00
2018-08-22T10:12:23.528Z,35.80
2018-08-22T10:14:51.089Z,35.80
2018-08-22T10:17:18.615Z,36.00
2018-08-22T10:19:46.172Z,35.60
2018-08-22T10:22:13.722Z,35.00
2018-08-22T10:24:41.263Z,35.10
2018-08-22T10:27:08.845Z,35.30
2018-08-22T10:29:36.367Z,35.30
2018-08-22T10:32:03.939Z,34.90
2018-08-22T10:34:31.704Z,35.00
2018-08-22T10:36:59.234Z,34.90
2018-08-22T10:39:26.795Z,34.80
2018-08-22T10:41:54.319Z,34.50
2018-08-22T10:44:21.896Z,34.50
2018-08-22T10:46:49.399Z,34.40
2018-08-22T10:49:16.946Z,34.10
2018-08-22T10:51:44.484Z,34.10
2018-08-22T10:54:12.041Z,33.20
2018-08-22T10:56:39.572Z,33.80
2018-08-22T10:59:07.117Z,33.30
2018-08-22T11:01:34.647Z,33.40
2018-08-22T11:04:02.176Z,33.70
2018-08-22T11:06:29.666Z,33.60
2018-08-22T11:08:57.190Z,33.50
2018-08-22T11:11:24.711Z,33.80
2018-08-22T11:13:52.256Z,33.40
2018-08-22T11:16:19.773Z,33.00
2018-08-22T11:18:47.274Z,32.70
2018-08-22T11:21:32.368Z,32.80
2018-08-22T11:24:17.443Z,32.60
2018-08-22T11:27:02.523Z,32.60
2018-08-22T11:29:47.651Z,32.50
2018-08-22T11:32:32.719Z,32.50
2018-08-22T11:34:59.017Z,32.40
2018-08-22T11:37:26.551Z,32.20
2018-08-22T11:39:54.079Z,32.40
2018-08-22T11:42:21.605Z,32.00
2018-08-22T11:44:49.145Z,32.70
2018-08-22T11:47:16.686Z,31.20
2018-08-22T11:49:44.223Z,31.60
2018-08-22T11:52:11.751Z,31.50
2018-08-22T11:54:46.172Z,31.20
2018-08-22T11:57:13.692Z,31.10
2018-08-22T11:59:41.229Z,31.10
2018-08-22T12:02:08.759Z,30.90
2018-08-22T12:04:36.291Z,31.00
2018-08-22T12:07:03.826Z,31.20
2018-08-22T12:09:31.354Z,31.00
2018-08-22T12:11:58.875Z,31.10
2018-08-22T12:14:26.412Z,31.10
2018-08-22T12:16:53.950Z,30.50
2018-08-22T12:19:21.482Z,30.40
2018-08-22T12:21:49.031Z,30.30
2018-08-22T12:24:16.551Z,30.20
2018-08-22T12:26:50.785Z,30.60
2018-08-22T12:29:18.299Z,31.40
2018-08-22T12:31:45.823Z,32.10
2018-08-22T12:34:13.340Z,32.30
2018-08-22T12:36:40.867Z,32.50
2018-08-22T12:39:08.401Z,32.40
2018-08-22T12:41:35.915Z,32.10
2018-08-22T12:44:03.435Z,31.60
2018-08-22T12:46:30.962Z,30.90
2018-08-22T12:48:58.471Z,30.00
2018-08-22T12:51:26.008Z,29.90
2018-08-22T12:53:53.530Z,30.10
2018-08-22T12:56:21.061Z,30.00
2018-08-22T12:58:48.596Z,30.00
2018-08-22T13:01:16.149Z,30.50
2018-08-22T13:03:43.679Z,31.30
2018-08-22T13:06:11.199Z,32.00
2018-08-22T13:08:38.724Z,32.30
2018-08-22T13:11:06.303Z,32.30
2018-08-22T13:13:33.808Z,32.80
2018-08-22T13:16:01.333Z,33.80
2018-08-22T13:18:28.876Z,33.50
2018-08-22T13:20:56.424Z,33.60
2018-08-22T13:23:23.943Z,32.80
2018-08-22T13:25:51.492Z,32.00
2018-08-22T13:28:19.014Z,30.80
2018-08-22T13:30:46.568Z,31.00
2018-08-22T13:33:14.103Z,31.20
2018-08-22T13:35:41.619Z,31.40
2018-08-22T13:38:09.138Z,31.00
2018-08-22T13:40:36.651Z,30.90
2018-08-22T13:43:04.472Z,30.90
2018-08-22T13:45:32.003Z,30.80
2018-08-22T13:47:59.526Z,30.70
2018-08-22T13:50:27.039Z,30.60
2018-08-22T13:52:54.575Z,30.10
2018-08-22T13:55:22.097Z,30.50
2018-08-22T13:57:49.653Z,29.60
2018-08-22T14:00:17.180Z,29.40
2018-08-22T14:02:44.731Z,29.20
2018-08-22T14:05:12.263Z,29.50
2018-08-22T14:07:39.803Z,29.70
2018-08-22T14:10:07.395Z,30.00
2018-08-22T14:12:34.946Z,30.60
2018-08-22T14:15:02.542Z,31.40
2018-08-22T14:17:30.895Z,32.10
2018-08-22T14:19:58.438Z,33.00
2018-08-22T14:22:26.032Z,32.40
2018-08-22T14:24:53.502Z,32.50
2018-08-22T14:27:21.051Z,32.40
2018-08-22T14:29:48.576Z,31.90
2018-08-22T14:32:16.107Z,32.50
2018-08-22T14:34:43.650Z,32.20
2018-08-22T14:37:11.202Z,32.20
2018-08-22T14:39:38.755Z,31.60
2018-08-22T14:42:06.307Z,31.30
2018-08-22T14:44:33.844Z,31.10
2018-08-22T14:47:01.383Z,30.60
2018-08-22T14:49:28.940Z,30.80
2018-08-22T14:51:56.483Z,30.50
2018-08-22T14:54:24.028Z,30.00
2018-08-22T14:56:51.601Z,30.00
2018-08-22T14:59:19.161Z,29.70
2018-08-22T15:01:46.707Z,29.40
2018-08-22T15:04:14.222Z,29.40
2018-08-22T15:06:41.736Z,29.40
2018-08-22T15:09:17.572Z,29.50
2018-08-22T15:11:45.234Z,28.90
2018-08-22T15:14:12.765Z,29.00
2018-08-22T15:16:40.329Z,29.10
2018-08-22T15:19:07.892Z,28.90
2018-08-22T15:21:35.411Z,28.80
2018-08-22T15:24:02.946Z,28.60
2018-08-22T15:26:30.505Z,28.80
2018-08-22T15:28:57.994Z,28.90
2018-08-22T15:31:25.515Z,29.30
2018-08-22T15:33:53.051Z,28.90
2018-08-22T15:36:20.814Z,29.00
2018-08-22T15:38:48.317Z,28.70
2018-08-22T15:41:16.230Z,29.10
2018-08-22T15:43:43.738Z,29.20
2018-08-22T15:46:11.276Z,29.30
2018-08-22T15:48:38.807Z,29.50
2018-08-22T15:51:06.334Z,29.70
2018-08-22T15:53:33.847Z,29.60
2018-08-22T15:56:01.376Z,29.80
2018-08-22T15:58:28.915Z,29.90
2018-08-22T16:00:56.447Z,29.50
2018-08-22T16:03:25.110Z,29.60
2018-08-22T16:05:53.687Z,30.00
2018-08-22T16:08:22.423Z,30.20
2018-08-22T16:10:49.928Z,30.70
2018-08-22T16:13:23.186Z,30.70
2018-08-22T16:15:52.682Z,30.80
2018-08-22T16:18:20.414Z,30.90
2018-08-22T16:20:55.311Z,30.70
2018-08-22T16:23:32.930Z,30.80
2018-08-22T16:26:01.503Z,31.10
2018-08-22T16:28:48.639Z,31.70
2018-08-22T16:31:16.384Z,32.10
2018-08-22T16:33:43.843Z,32.90
2018-08-22T16:36:18.206Z,32.60
2018-08-22T16:38:45.727Z,32.90
2018-08-22T16:41:13.257Z,33.30
2018-08-22T16:43:42.193Z,33.50
2018-08-22T16:46:11.996Z,33.60
2018-08-22T16:48:40.271Z,33.70
2018-08-22T16:51:07.798Z,34.20
2018-08-22T16:53:35.395Z,33.60
2018-08-22T16:56:02.963Z,33.80
2018-08-22T16:58:30.525Z,33.80
2018-08-22T17:00:58.073Z,35.10
2018-08-22T17:03:25.850Z,35.20
2018-08-22T17:06:03.276Z,35.50
2018-08-22T17:08:30.841Z,35.80
2018-08-22T17:11:01.420Z,36.10
2018-08-22T17:13:40.674Z,36.40
2018-08-22T17:16:08.224Z,36.60
2018-08-22T17:18:35.778Z,37.00
2018-08-22T17:21:03.323Z,37.30
2018-08-22T17:23:30.858Z,37.90
2018-08-22T17:25:58.395Z,39.30
2018-08-22T17:28:34.366Z,40.90
2018-08-22T17:31:02.479Z,41.30
2018-08-22T17:33:38.204Z,41.70
2018-08-22T17:36:09.502Z,42.20
2018-08-22T17:38:37.254Z,42.90
2018-08-22T17:41:04.999Z,43.30
2018-08-22T17:43:53.366Z,43.70
2018-08-22T17:46:22.079Z,44.30
2018-08-22T17:48:49.634Z,45.10
2018-08-22T17:51:17.319Z,45.70
2018-08-22T17:53:44.871Z,46.20
2018-08-22T17:56:12.412Z,46.80
2018-08-22T17:58:39.950Z,47.40
2018-08-22T18:01:07.503Z,48.00
2018-08-22T18:03:35.055Z,48.60
2018-08-22T18:06:02.591Z,49.10
2018-08-22T18:08:31.414Z,49.40
2018-08-22T18:10:58.963Z,50.00
2018-08-22T18:13:27.165Z,50.40
2018-08-22T18:15:54.870Z,51.00
2018-08-22T18:18:22.437Z,51.50
2018-08-22T18:20:50.687Z,52.00
2018-08-22T18:23:19.144Z,52.60
2018-08-22T18:25:52.705Z,53.20
2018-08-22T18:28:20.247Z,53.50
2018-08-22T18:30:54.595Z,53.80
2018-08-22T18:33:22.111Z,54.20
2018-08-22T18:35:49.647Z,54.40
2018-08-22T18:38:17.175Z,54.60
2018-08-22T18:41:01.886Z,54.90
2018-08-22T18:43:29.433Z,55.00
2018-08-22T18:46:02.380Z,55.20
2018-08-22T18:48:31.495Z,55.50
2018-08-22T18:50:59.372Z,55.70
2018-08-22T18:53:26.882Z,55.80
2018-08-22T18:56:11.222Z,56.20
2018-08-22T18:58:38.967Z,56.10
2018-08-22T19:01:06.707Z,56.30
2018-08-22T19:03:34.467Z,56.50
2018-08-22T19:06:02.139Z,56.60
2018-08-22T19:08:29.670Z,56.60
2018-08-22T19:10:57.269Z,56.70
2018-08-22T19:13:25.530Z,56.90
2018-08-22T19:15:58.314Z,57.10
2018-08-22T19:18:26.071Z,57.20
2018-08-22T19:20:56.526Z,57.50
2018-08-22T19:23:24.079Z,57.40
2018-08-22T19:25:52.640Z,57.30
2018-08-22T19:28:20.100Z,57.40
2018-08-22T19:30:47.893Z,57.60
2018-08-22T19:33:16.870Z,57.70
2018-08-22T19:35:44.855Z,57.90
2018-08-22T19:38:16.336Z,57.70
2018-08-22T19:40:43.886Z,58.00
2018-08-22T19:43:11.512Z,58.10
2018-08-22T19:45:39.054Z,58.30
2018-08-22T19:48:13.366Z,58.40
2018-08-22T19:50:40.922Z,58.50
2018-08-22T19:53:08.451Z,58.60
2018-08-22T19:55:37.094Z,58.70
2018-08-22T19:58:05.090Z,58.70
2018-08-22T20:00:32.649Z,58.70
2018-08-22T20:03:00.210Z,58.90
2018-08-22T20:05:48.843Z,59.10
2018-08-22T20:08:16.414Z,59.40
2018-08-22T20:10:43.972Z,59.90
2018-08-22T20:13:11.517Z,59.90
2018-08-22T20:15:39.059Z,60.00
2018-08-22T20:18:13.343Z,60.30
2018-08-22T20:20:40.879Z,60.30
2018-08-22T20:23:08.480Z,60.50
2018-08-22T20:25:35.980Z,60.80
2018-08-22T20:28:03.538Z,61.10
2018-08-22T20:30:31.120Z,61.80
2018-08-22T20:33:04.543Z,61.00
2018-08-22T20:35:35.350Z,61.40
2018-08-22T20:38:04.435Z,61.60
2018-08-22T20:40:32.011Z,61.70
2018-08-22T20:42:59.587Z,61.90
2018-08-22T20:45:42.204Z,62.20
2018-08-22T20:48:10.645Z,62.40
2018-08-22T20:50:39.438Z,62.50
2018-08-22T20:53:08.315Z,62.60
2018-08-22T20:55:35.877Z,63.00
2018-08-22T20:58:03.849Z,62.90
2018-08-22T21:00:33.798Z,63.20
2018-08-22T21:03:01.443Z,63.70
2018-08-22T21:05:28.922Z,64.00
2018-08-22T21:07:56.450Z,64.20
2018-08-22T21:10:23.983Z,64.50
2018-08-22T21:12:51.764Z,64.60
2018-08-22T21:15:19.290Z,64.40
2018-08-22T21:17:46.847Z,64.20
2018-08-22T21:20:19.100Z,64.00
2018-08-22T21:22:46.783Z,63.90
2018-08-22T21:25:15.924Z,64.00
2018-08-22T21:27:43.684Z,63.90
2018-08-22T21:30:11.696Z,63.50
2018-08-22T21:32:39.195Z,64.70
2018-08-22T21:35:13.758Z,65.00
2018-08-22T21:37:41.279Z,65.00
2018-08-22T21:40:08.812Z,65.50
2018-08-22T21:42:36.340Z,65.70
2018-08-22T21:45:03.878Z,65.70
2018-08-22T21:47:31.395Z,65.70
2018-08-22T21:49:58.929Z,65.80
2018-08-22T21:52:52.896Z,66.10
2018-08-22T21:55:25.055Z,66.30
2018-08-22T21:57:52.590Z,66.40
2018-08-22T22:00:20.304Z,66.90
2018-08-22T22:02:47.895Z,67.10
2018-08-22T22:05:15.463Z,67.20
2018-08-22T22:07:43.015Z,67.40
2018-08-22T22:10:12.061Z,67.70
2018-08-22T22:12:40.225Z,68.10
2018-08-22T22:15:12.987Z,68.30
2018-08-22T22:17:41.327Z,68.50
2018-08-22T22:20:08.887Z,68.70
2018-08-22T22:22:36.457Z,69.30
2018-08-22T22:25:05.212Z,69.40
2018-08-22T22:27:32.770Z,69.60
2018-08-22T22:30:02.871Z,69.70
2018-08-22T22:32:31.147Z,70.10
2018-08-22T22:34:58.671Z,70.50
2018-08-22T22:37:26.250Z,71.50
2018-08-22T22:39:53.778Z,71.60
2018-08-22T22:42:25.026Z,72.40
2018-08-22T22:44:53.660Z,72.10
2018-08-22T22:47:27.006Z,72.20
2018-08-22T22:49:54.972Z,72.60
2018-08-22T22:52:28.326Z,72.80
2018-08-22T22:54:57.103Z,73.70
2018-08-22T22:57:24.872Z,73.90
2018-08-22T22:59:52.954Z,74.20
2018-08-22T23:02:23.175Z,74.60
2018-08-22T23:04:51.642Z,74.90
2018-08-22T23:07:22.074Z,75.00
2018-08-22T23:09:52.759Z,75.30
2018-08-22T23:12:26.033Z,75.40
2018-08-22T23:14:54.674Z,76.00
2018-08-22T23:17:22.231Z,76.70
2018-08-22T23:20:02.158Z,77.10
2018-08-22T23:22:29.663Z,77.10
2018-08-22T23:24:57.184Z,77.50
2018-08-22T23:27:24.717Z,77.90
2018-08-22T23:29:52.256Z,77.90
2018-08-22T23:32:19.775Z,78.10
2018-08-22T23:34:47.296Z,78.50
2018-08-22T23:37:14.811Z,78.80
2018-08-22T23:39:42.321Z,78.90
2018-08-22T23:42:09.844Z,79.00
2018-08-22T23:44:42.087Z,79.40
2018-08-22T23:47:09.604Z,79.80
2018-08-22T23:49:41.748Z,80.70
2018-08-22T23:52:09.278Z,80.70
2018-08-22T23:54:41.414Z,80.90
2018-08-22T23:57:09.007Z,81.20
2018-08-22T23:59:36.512Z,81.40
